Time;durP1;ratioP1;P1;durP2;ratioP2;P2;SDS_P1;SDS_P2;PMS_P1;PMS_P2;Temp;Humidity;BMP_temperature;BMP_pressure;BME280_temperature;BME280_humidity;BME280_pressure;Samples;Min_cycle;Max_cycle;Signal;HPM_P1;HPM_P2
2023/03/28 00:01:34;;;;;;;;;;;0.60;99.90;;;;;;5045282;28;19929;-94
2023/03/28 00:04:01;;;;;;;;;;;0.80;99.90;;;;;;5047466;28;19980;-95
2023/03/28 00:06:27;;;;;;;;;;;0.60;99.90;;;;;;5050240;28;20490;-93
2023/03/28 00:08:54;;;;;;;;;;;0.20;99.90;;;;;;5033546;28;19931;-95
2023/03/28 00:11:21;;;;;;;;;;;0.20;99.90;;;;;;5060154;28;19990;-94
2023/03/28 00:14:07;;;;;;;;;;;0.40;99.90;;;;;;5043124;28;19925;-95
2023/03/28 00:16:34;;;;;;;;;;;0.80;99.90;;;;;;5056360;28;19933;-94
2023/03/28 00:19:01;;;;;;;;;;;0.00;99.90;;;;;;5045655;28;19992;-94
2023/03/28 00:21:31;;;;;;;;;;;0.30;99.90;;;;;;5039595;28;19931;-94
2023/03/28 00:24:00;;;;;;;;;;;-0.10;99.90;;;;;;5066216;28;19935;-94
2023/03/28 00:26:27;;;;;;;;;;;-0.10;99.90;;;;;;5038876;28;20389;-95
2023/03/28 00:28:53;;;;;;;;;;;-0.10;99.90;;;;;;5048836;28;20396;-94
2023/03/28 00:31:19;;;;;;;;;;;0.00;99.90;;;;;;5044373;28;19924;-94
2023/03/28 00:33:46;;;;;;;;;;;0.00;99.90;;;;;;5049210;28;19978;-94
2023/03/28 00:36:13;;;;;;;;;;;0.30;99.90;;;;;;5046047;28;19959;-95
2023/03/28 00:38:39;;;;;;;;;;;-0.10;99.90;;;;;;5041829;28;20289;-94
2023/03/28 00:41:08;;;;;;;;;;;-0.10;99.90;;;;;;5027479;28;19935;-95
2023/03/28 00:43:44;;;;;;;;;;;-0.10;99.90;;;;;;5032927;28;19924;-94
2023/03/28 00:46:28;;;;;;;;;;;-0.10;99.90;;;;;;5045924;28;19929;-93
2023/03/28 00:49:14;;;;;;;;;;;0.00;99.90;;;;;;5050987;28;19925;-94
2023/03/28 00:51:42;;;;;;;;;;;0.00;99.90;;;;;;5044113;28;19988;-93
2023/03/28 00:54:11;;;;;;;;;;;0.50;99.90;;;;;;5040549;28;19925;-95
2023/03/28 00:56:38;;;;;;;;;;;-0.10;99.90;;;;;;5043552;28;19924;-94
2023/03/28 00:59:06;;;;;;;;;;;0.50;99.90;;;;;;5065460;28;19947;-94
2023/03/28 01:01:32;;;;;;;;;;;0.10;99.90;;;;;;5047565;28;19979;-94
2023/03/28 01:04:01;;;;;;;;;;;-0.20;99.90;;;;;;5032923;28;19924;-94
2023/03/28 01:06:34;;;;;;;;;;;-0.30;99.90;;;;;;5043799;28;19929;-95
2023/03/28 01:09:03;;;;;;;;;;;-0.20;99.90;;;;;;5044969;28;19959;-96
2023/03/28 01:11:29;;;;;;;;;;;-0.20;99.90;;;;;;5059756;28;19931;-95
2023/03/28 01:13:57;;;;;;;;;;;-0.30;99.90;;;;;;5046559;28;19928;-93
2023/03/28 01:16:23;;;;;;;;;;;-0.10;99.90;;;;;;5048624;28;19925;-93
2023/03/28 01:18:52;;;;;;;;;;;0.00;99.90;;;;;;5038086;28;19932;-94
2023/03/28 01:21:35;;;;;;;;;;;-0.30;99.90;;;;;;5037679;28;19924;-95
2023/03/28 01:24:21;;;;;;;;;;;-0.10;99.90;;;;;;5045140;28;19968;-93
2023/03/28 01:26:56;;;;;;;;;;;-0.20;99.90;;;;;;5063055;28;20375;-96
2023/03/28 01:29:40;;;;;;;;;;;0.00;99.90;;;;;;5064162;28;19968;-96
2023/03/28 01:32:15;;;;;;;;;;;-0.20;99.90;;;;;;5042073;28;20068;-94
2023/03/28 01:35:13;;;;;;;;;;;-0.20;99.90;;;;;;5038670;28;19933;-95
2023/03/28 01:37:58;;;;;;;;;;;-0.10;99.90;;;;;;4995739;28;19948;-96
2023/03/28 01:40:33;;;;;;;;;;;0.10;99.90;;;;;;5028793;28;19994;-95
2023/03/28 01:43:06;;;;;;;;;;;-0.20;99.90;;;;;;5044456;28;19925;-94
2023/03/28 01:45:44;;;;;;;;;;;2.00;99.90;;;;;;5048153;28;19924;-95
2023/03/28 01:48:10;;;;;;;;;;;-0.10;99.90;;;;;;5065444;28;20022;-95
2023/03/28 01:50:35;;;;;;;;;;;0.30;99.90;;;;;;5056934;28;19925;-95
2023/03/28 01:53:02;;;;;;;;;;;-0.10;99.90;;;;;;5060743;28;19925;-94
2023/03/28 01:55:38;;;;;;;;;;;-0.30;99.90;;;;;;5052178;28;19968;-94
2023/03/28 01:58:13;;;;;;;;;;;0.10;99.90;;;;;;5044415;28;19932;-95
2023/03/28 02:00:41;;;;;;;;;;;-0.30;99.90;;;;;;5046870;28;19924;-95
2023/03/28 02:03:10;;;;;;;;;;;0.40;99.90;;;;;;5039095;28;19975;-94
2023/03/28 02:05:37;;;;;;;;;;;-0.30;99.90;;;;;;5047487;28;19932;-94
2023/03/28 02:08:07;;;;;;;;;;;-0.20;99.90;;;;;;5041723;28;20351;-95
2023/03/28 02:10:33;;;;;;;;;;;-0.30;99.90;;;;;;5057962;28;20011;-95
2023/03/28 02:13:04;;;;;;;;;;;-0.30;99.90;;;;;;5048766;28;19967;-95
2023/03/28 02:15:31;;;;;;;;;;;-0.40;99.90;;;;;;5042168;28;19935;-94
2023/03/28 02:18:00;;;;;;;;;;;-0.30;99.90;;;;;;5047475;28;19924;-96
2023/03/28 02:20:27;;;;;;;;;;;-0.40;99.90;;;;;;5046861;28;19928;-96
2023/03/28 02:22:57;;;;;;;;;;;-0.40;99.90;;;;;;5043218;28;19935;-95
2023/03/28 02:25:23;;;;;;;;;;;-0.60;99.90;;;;;;5053688;28;20483;-94
2023/03/28 02:27:51;;;;;;;;;;;-0.60;99.90;;;;;;5031390;28;19928;-94
2023/03/28 02:30:18;;;;;;;;;;;-0.70;99.90;;;;;;5046158;28;19970;-93
2023/03/28 02:32:48;;;;;;;;;;;-0.30;99.90;;;;;;5039282;28;19925;-94
2023/03/28 02:35:14;;;;;;;;;;;0.40;99.90;;;;;;5061122;28;19939;-96
2023/03/28 02:37:46;;;;;;;;;;;-0.70;99.90;;;;;;5047288;28;20279;-94
2023/03/28 02:40:31;;;;;;;;;;;-0.60;99.90;;;;;;5044882;28;19925;-94
2023/03/28 02:43:10;;;;;;;;;;;-0.60;99.90;;;;;;5055647;28;19931;-95
2023/03/28 02:45:45;;;;;;;;;;;-0.60;99.90;;;;;;5058868;28;20015;-94
2023/03/28 02:48:40;;;;;;;;;;;-0.50;99.90;;;;;;5039648;28;19955;-94
2023/03/28 02:51:18;;;;;;;;;;;-0.60;99.90;;;;;;5050501;28;19925;-93
2023/03/28 02:54:02;;;;;;;;;;;-0.60;99.90;;;;;;5036516;28;19984;-95
2023/03/28 02:56:35;;;;;;;;;;;-0.60;99.90;;;;;;5045555;28;19924;-94
2023/03/28 02:59:17;;;;;;;;;;;-0.60;99.90;;;;;;5042986;28;19924;-96
2023/03/28 03:01:43;;;;;;;;;;;-0.70;99.90;;;;;;5063608;28;19971;-95
2023/03/28 03:04:16;;;;;;;;;;;-0.10;99.90;;;;;;5022295;28;19924;-95
2023/03/28 03:06:44;;;;;;;;;;;-0.70;99.90;;;;;;5045317;28;19931;-95
2023/03/28 03:09:10;;;;;;;;;;;-0.80;99.90;;;;;;5037420;28;19984;-94
2023/03/28 03:11:36;;;;;;;;;;;-0.50;99.90;;;;;;5044194;28;19924;-94
2023/03/28 03:14:02;;;;;;;;;;;-3.30;99.90;;;;;;5029370;28;19971;-93
2023/03/28 03:16:28;;;;;;;;;;;0.00;99.90;;;;;;5034623;28;19924;-93
2023/03/28 03:18:55;;;;;;;;;;;-0.70;99.90;;;;;;5020373;28;19935;-94
2023/03/28 03:21:22;;;;;;;;;;;-0.80;99.90;;;;;;5037616;28;19928;-94
2023/03/28 03:23:48;;;;;;;;;;;-0.70;99.90;;;;;;5030374;28;19928;-94
2023/03/28 03:26:14;;;;;;;;;;;-0.80;99.90;;;;;;5029230;28;19947;-92
2023/03/28 03:28:40;;;;;;;;;;;-0.70;99.90;;;;;;5052692;28;19924;-93
2023/03/28 03:31:05;;;;;;;;;;;-0.90;99.90;;;;;;5062994;28;19978;-94
2023/03/28 03:33:31;;;;;;;;;;;-0.90;99.90;;;;;;5062514;28;19970;-94
2023/03/28 03:35:57;;;;;;;;;;;-0.90;99.90;;;;;;5030775;28;19930;-94
2023/03/28 03:38:22;;;;;;;;;;;-0.90;99.90;;;;;;5062256;28;20003;-94
2023/03/28 03:40:48;;;;;;;;;;;-0.30;99.90;;;;;;5056032;28;19931;-93
2023/03/28 03:43:13;;;;;;;;;;;-0.40;99.90;;;;;;5039641;28;19925;-95
2023/03/28 03:45:39;;;;;;;;;;;-0.60;99.90;;;;;;5058496;28;19970;-92
2023/03/28 03:48:05;;;;;;;;;;;-0.50;99.90;;;;;;5047235;28;19933;-94
2023/03/28 03:50:31;;;;;;;;;;;-0.70;99.90;;;;;;5044281;28;19924;-95
2023/03/28 03:52:56;;;;;;;;;;;-0.70;99.90;;;;;;5043130;28;20238;-94
2023/03/28 03:55:22;;;;;;;;;;;0.10;99.90;;;;;;5062308;28;19984;-94
2023/03/28 03:57:48;;;;;;;;;;;-1.00;99.90;;;;;;5036888;28;19947;-94
2023/03/28 04:00:13;;;;;;;;;;;-0.80;99.90;;;;;;5044454;28;19931;-93
2023/03/28 04:02:39;;;;;;;;;;;-0.90;99.90;;;;;;5059118;28;19925;-93
2023/03/28 04:05:07;;;;;;;;;;;-1.00;99.90;;;;;;5021502;28;19935;-93
2023/03/28 04:07:33;;;;;;;;;;;-1.00;99.90;;;;;;5044131;28;19925;-95
2023/03/28 04:09:58;;;;;;;;;;;-1.00;99.90;;;;;;5039407;28;19936;-94
2023/03/28 04:12:24;;;;;;;;;;;0.10;99.90;;;;;;5045891;28;19980;-93
2023/03/28 04:14:49;;;;;;;;;;;-1.00;99.90;;;;;;5047552;28;19995;-95
2023/03/28 04:17:22;;;;;;;;;;;-0.90;99.90;;;;;;5026410;28;19924;-94
2023/03/28 04:19:48;;;;;;;;;;;-0.90;99.90;;;;;;5063091;28;19928;-93
2023/03/28 04:22:17;;;;;;;;;;;0.70;99.90;;;;;;5010908;28;19925;-94
2023/03/28 04:24:43;;;;;;;;;;;-0.90;99.90;;;;;;5026149;28;19925;-95
2023/03/28 04:27:10;;;;;;;;;;;-0.70;99.90;;;;;;5047854;28;20405;-93
2023/03/28 04:29:36;;;;;;;;;;;-0.90;99.90;;;;;;5042118;28;19931;-94
2023/03/28 04:32:04;;;;;;;;;;;-0.90;99.90;;;;;;5050885;28;19972;-94
2023/03/28 04:34:30;;;;;;;;;;;-1.10;99.90;;;;;;5056889;28;19970;-95
2023/03/28 04:37:00;;;;;;;;;;;-1.10;99.90;;;;;;5050902;28;19924;-94
2023/03/28 04:39:27;;;;;;;;;;;-1.10;99.90;;;;;;5049220;28;19925;-95
2023/03/28 04:41:54;;;;;;;;;;;-1.10;99.90;;;;;;5047554;28;19925;-95
2023/03/28 04:44:20;;;;;;;;;;;-0.70;99.90;;;;;;5049881;28;19947;-93
2023/03/28 04:46:47;;;;;;;;;;;1.50;99.90;;;;;;5056836;28;19925;-94
2023/03/28 04:49:13;;;;;;;;;;;-1.10;99.90;;;;;;5059569;28;19925;-94
2023/03/28 04:51:39;;;;;;;;;;;-1.10;99.90;;;;;;5049388;28;20014;-95
2023/03/28 04:54:04;;;;;;;;;;;-1.00;99.90;;;;;;5031130;28;19932;-94
2023/03/28 04:56:30;;;;;;;;;;;-0.10;99.90;;;;;;5049134;28;19933;-94
2023/03/28 04:58:56;;;;;;;;;;;-0.60;99.90;;;;;;5058145;28;19936;-95
2023/03/28 05:01:24;;;;;;;;;;;-1.10;99.90;;;;;;5048452;28;19950;-93
2023/03/28 05:03:50;;;;;;;;;;;-1.10;99.90;;;;;;5054446;28;20019;-92
2023/03/28 05:06:16;;;;;;;;;;;-1.20;99.90;;;;;;5048940;28;20386;-93
2023/03/28 05:08:42;;;;;;;;;;;-1.70;99.90;;;;;;5058904;28;19975;-94
2023/03/28 05:11:08;;;;;;;;;;;-0.90;99.90;;;;;;5027644;28;19925;-95
2023/03/28 05:13:34;;;;;;;;;;;-1.10;99.90;;;;;;5037542;28;20001;-95
2023/03/28 05:15:59;;;;;;;;;;;-0.90;99.90;;;;;;5046802;28;19932;-94
2023/03/28 05:18:25;;;;;;;;;;;-1.20;99.90;;;;;;5062826;28;19990;-95
2023/03/28 05:20:51;;;;;;;;;;;-0.80;99.90;;;;;;5048992;28;19975;-95
2023/03/28 05:23:16;;;;;;;;;;;-0.60;99.90;;;;;;5056571;28;20471;-94
2023/03/28 05:25:42;;;;;;;;;;;-0.50;99.90;;;;;;5052479;28;19925;-94
2023/03/28 05:28:08;;;;;;;;;;;-1.20;99.90;;;;;;5057490;28;19931;-94
2023/03/28 05:30:33;;;;;;;;;;;-1.10;99.90;;;;;;5040376;28;19925;-93
2023/03/28 05:32:59;;;;;;;;;;;-1.00;99.90;;;;;;5045860;28;19925;-94
2023/03/28 05:35:25;;;;;;;;;;;-0.40;99.90;;;;;;5044105;28;19938;-95
2023/03/28 05:37:50;;;;;;;;;;;-0.90;99.90;;;;;;5029206;28;19925;-93
2023/03/28 05:40:16;;;;;;;;;;;-0.60;99.90;;;;;;5025942;28;19924;-92
2023/03/28 05:42:42;;;;;;;;;;;-0.80;99.90;;;;;;5025040;28;19925;-94
2023/03/28 05:45:08;;;;;;;;;;;-0.50;99.90;;;;;;5027534;28;19925;-94
2023/03/28 05:47:34;;;;;;;;;;;-0.70;99.90;;;;;;5058129;28;19929;-95
2023/03/28 05:50:00;;;;;;;;;;;-0.50;99.90;;;;;;5033719;28;19925;-95
2023/03/28 05:52:26;;;;;;;;;;;-0.20;99.90;;;;;;5048267;28;19939;-93
2023/03/28 05:54:51;;;;;;;;;;;0.00;99.90;;;;;;5037874;28;19955;-94
2023/03/28 05:57:17;;;;;;;;;;;-0.40;99.90;;;;;;5026736;28;19925;-96
2023/03/28 05:59:43;;;;;;;;;;;-0.30;99.90;;;;;;5030407;28;19934;-96
2023/03/28 06:02:13;;;;;;;;;;;-0.20;99.90;;;;;;5048011;28;19924;-93
2023/03/28 06:04:39;;;;;;;;;;;-0.10;99.90;;;;;;5039205;28;19928;-96
2023/03/28 06:07:05;;;;;;;;;;;0.00;99.90;;;;;;5032127;28;20404;-95
2023/03/28 06:09:31;;;;;;;;;;;0.00;99.90;;;;;;5024968;28;19924;-94
2023/03/28 06:11:57;;;;;;;;;;;0.10;99.90;;;;;;5039751;28;19931;-94
2023/03/28 06:14:22;;;;;;;;;;;1.00;99.90;;;;;;5044872;28;19924;-93
2023/03/28 06:16:48;;;;;;;;;;;0.20;99.90;;;;;;5039940;28;19963;-96
2023/03/28 06:19:14;;;;;;;;;;;0.70;99.90;;;;;;5016455;28;19924;-95
2023/03/28 06:21:40;;;;;;;;;;;0.40;99.90;;;;;;5030391;28;19924;-95
2023/03/28 06:24:05;;;;;;;;;;;0.30;99.90;;;;;;5040283;28;19925;-96
2023/03/28 06:26:31;;;;;;;;;;;0.40;99.90;;;;;;5046892;28;19925;-95
2023/03/28 06:28:57;;;;;;;;;;;0.50;99.90;;;;;;5042292;28;19931;-94
2023/03/28 06:31:22;;;;;;;;;;;1.00;99.90;;;;;;5022313;28;19970;-94
2023/03/28 06:33:48;;;;;;;;;;;0.70;99.90;;;;;;5030134;28;20011;-95
2023/03/28 06:36:14;;;;;;;;;;;0.90;99.90;;;;;;5031057;28;19924;-94
2023/03/28 06:38:39;;;;;;;;;;;0.70;99.90;;;;;;5037428;28;19925;-95
2023/03/28 06:41:05;;;;;;;;;;;0.80;99.90;;;;;;5015800;28;19992;-95
2023/03/28 06:43:31;;;;;;;;;;;0.90;99.90;;;;;;5036275;28;20369;-94
2023/03/28 06:45:56;;;;;;;;;;;1.00;99.90;;;;;;5045518;28;19928;-96
2023/03/28 06:48:28;;;;;;;;;;;1.10;99.90;;;;;;5025162;28;19924;-94
2023/03/28 06:50:53;;;;;;;;;;;1.30;99.90;;;;;;5040985;28;19932;-95
2023/03/28 06:53:19;;;;;;;;;;;1.30;99.90;;;;;;5028163;28;19925;-94
2023/03/28 06:55:45;;;;;;;;;;;1.30;99.90;;;;;;5043573;28;19929;-93
2023/03/28 06:58:10;;;;;;;;;;;1.50;99.90;;;;;;5059226;28;20432;-95
2023/03/28 07:00:36;;;;;;;;;;;1.40;99.90;;;;;;5024473;28;20196;-94
2023/03/28 07:03:02;;;;;;;;;;;1.60;99.90;;;;;;5039800;28;19925;-94
2023/03/28 07:05:28;;;;;;;;;;;1.70;99.90;;;;;;5044342;28;19925;-94
2023/03/28 07:07:54;;;;;;;;;;;1.80;99.90;;;;;;5058422;28;19924;-93
2023/03/28 07:10:20;;;;;;;;;;;1.70;99.90;;;;;;5024738;28;19980;-95
2023/03/28 07:12:45;;;;;;;;;;;1.70;99.90;;;;;;5025689;28;19932;-94
2023/03/28 07:15:11;;;;;;;;;;;2.20;99.90;;;;;;5044556;28;19925;-94
2023/03/28 07:17:37;;;;;;;;;;;1.90;99.90;;;;;;5026951;28;19925;-95
2023/03/28 07:20:03;;;;;;;;;;;2.00;99.90;;;;;;5029322;28;20043;-94
2023/03/28 07:22:29;;;;;;;;;;;2.70;99.90;;;;;;5027114;28;19929;-94
2023/03/28 07:24:55;;;;;;;;;;;2.10;99.90;;;;;;5021791;28;19929;-95
2023/03/28 07:27:20;;;;;;;;;;;2.10;99.90;;;;;;5010222;28;19968;-94
2023/03/28 07:29:46;;;;;;;;;;;2.30;99.90;;;;;;5024840;28;19925;-93
2023/03/28 07:32:13;;;;;;;;;;;2.30;99.90;;;;;;5043394;28;19931;-94
2023/03/28 07:34:39;;;;;;;;;;;2.10;99.90;;;;;;5041273;28;19925;-95
2023/03/28 07:37:05;;;;;;;;;;;2.20;99.90;;;;;;5040522;28;20016;-94
2023/03/28 07:39:31;;;;;;;;;;;2.60;99.90;;;;;;5026544;28;19967;-94
2023/03/28 07:41:56;;;;;;;;;;;2.30;99.90;;;;;;5032079;28;19925;-94
2023/03/28 07:44:22;;;;;;;;;;;2.30;99.90;;;;;;5026352;28;20374;-93
2023/03/28 07:46:50;;;;;;;;;;;2.30;99.90;;;;;;5027025;28;19932;-93
2023/03/28 07:49:16;;;;;;;;;;;2.50;99.90;;;;;;5019157;28;19943;-95
2023/03/28 07:51:42;;;;;;;;;;;2.50;99.90;;;;;;5024630;28;20024;-94
2023/03/28 07:54:16;;;;;;;;;;;2.60;99.90;;;;;;5007869;28;19965;-93
2023/03/28 07:56:43;;;;;;;;;;;2.70;99.90;;;;;;5012078;28;19936;-94
2023/03/28 07:59:09;;;;;;;;;;;4.10;99.90;;;;;;5018060;28;19925;-93
2023/03/28 08:01:34;;;;;;;;;;;3.20;99.90;;;;;;5034814;28;19995;-94
2023/03/28 08:04:01;;;;;;;;;;;3.30;99.90;;;;;;5037272;28;20522;-94
2023/03/28 08:06:26;;;;;;;;;;;3.40;99.90;;;;;;5042277;28;19947;-95
2023/03/28 08:08:52;;;;;;;;;;;3.40;99.90;;;;;;5012952;28;19925;-94
2023/03/28 08:11:17;;;;;;;;;;;3.60;99.90;;;;;;5030782;28;19925;-94
2023/03/28 08:13:43;;;;;;;;;;;3.70;99.90;;;;;;5038353;28;19960;-94
2023/03/28 08:16:09;;;;;;;;;;;3.80;99.90;;;;;;5014990;28;20026;-94
2023/03/28 08:18:35;;;;;;;;;;;4.00;99.90;;;;;;5044282;28;19929;-94
2023/03/28 08:21:01;;;;;;;;;;;4.10;99.90;;;;;;5011061;28;19947;-94
2023/03/28 08:23:27;;;;;;;;;;;4.20;99.90;;;;;;5017474;28;20048;-94
2023/03/28 08:26:01;;;;;;;;;;;4.40;99.90;;;;;;5037910;28;19977;-96
2023/03/28 08:28:27;;;;;;;;;;;5.50;99.90;;;;;;5016022;28;19935;-95
2023/03/28 08:30:53;;;;;;;;;;;5.00;99.90;;;;;;5034890;28;19926;-95
2023/03/28 08:33:19;;;;;;;;;;;4.80;99.90;;;;;;5026215;28;19925;-95
2023/03/28 08:35:47;;;;;;;;;;;5.00;99.90;;;;;;5011402;28;19929;-93
2023/03/28 08:38:12;;;;;;;;;;;5.20;99.90;;;;;;5026075;28;20008;-94
2023/03/28 08:40:42;;;;;;;;;;;5.10;99.90;;;;;;5010097;28;19925;-94
2023/03/28 08:43:11;;;;;;;;;;;5.20;99.90;;;;;;5019686;28;19947;-95
2023/03/28 08:45:52;;;;;;;;;;;5.40;99.90;;;;;;5041520;28;20024;-95
2023/03/28 08:48:21;;;;;;;;;;;5.20;99.90;;;;;;5034396;28;19926;-94
2023/03/28 08:50:49;;;;;;;;;;;5.20;99.90;;;;;;5043465;28;19929;-96
2023/03/28 08:53:33;;;;;;;;;;;5.30;99.90;;;;;;5047323;28;19963;-93
2023/03/28 08:56:01;;;;;;;;;;;5.10;99.90;;;;;;5028085;28;20330;-94
2023/03/28 08:58:30;;;;;;;;;;;5.00;99.90;;;;;;5022944;28;19926;-95
2023/03/28 09:00:56;;;;;;;;;;;5.20;99.90;;;;;;5020613;28;19976;-94
2023/03/28 09:03:23;;;;;;;;;;;5.30;99.90;;;;;;5040252;28;19929;-95
2023/03/28 09:05:56;;;;;;;;;;;5.20;99.90;;;;;;5027445;28;19982;-94
2023/03/28 09:08:22;;;;;;;;;;;3.60;99.90;;;;;;5026499;28;19925;-94
2023/03/28 09:10:48;;;;;;;;;;;5.60;99.90;;;;;;5025408;28;20118;-95
2023/03/28 09:13:25;;;;;;;;;;;5.50;99.90;;;;;;5027317;28;19925;-95
2023/03/28 09:16:05;;;;;;;;;;;5.60;99.90;;;;;;5019068;28;19988;-94
2023/03/28 09:18:44;;;;;;;;;;;5.90;99.90;;;;;;5027811;28;19910;-94
2023/03/28 09:21:12;;;;;;;;;;;6.20;99.90;;;;;;5032324;28;20283;-93
2023/03/28 09:23:44;;;;;;;;;;;6.30;99.90;;;;;;5023121;28;20478;-96
2023/03/28 09:26:17;;;;;;;;;;;6.40;99.90;;;;;;5026213;28;19925;-93
2023/03/28 09:28:49;;;;;;;;;;;5.90;99.90;;;;;;5042169;28;19925;-94
2023/03/28 09:31:17;;;;;;;;;;;6.00;99.90;;;;;;5022836;28;20316;-94
2023/03/28 09:33:46;;;;;;;;;;;6.10;99.90;;;;;;5019499;28;19925;-93
2023/03/28 09:36:13;;;;;;;;;;;6.70;99.90;;;;;;5018865;28;20391;-95
2023/03/28 09:38:43;;;;;;;;;;;6.10;99.90;;;;;;5024710;28;19989;-93
2023/03/28 09:41:18;;;;;;;;;;;6.30;99.90;;;;;;5027729;28;20383;-95
2023/03/28 09:43:52;;;;;;;;;;;6.20;99.90;;;;;;5036220;28;19932;-94
2023/03/28 09:46:30;;;;;;;;;;;6.40;99.90;;;;;;5033092;28;19989;-94
2023/03/28 09:48:59;;;;;;;;;;;6.50;99.90;;;;;;5023921;28;20647;-94
2023/03/28 09:51:25;;;;;;;;;;;6.60;99.90;;;;;;5035978;28;19974;-95
2023/03/28 09:53:51;;;;;;;;;;;6.80;99.90;;;;;;5019300;28;19925;-93
2023/03/28 09:56:22;;;;;;;;;;;6.70;99.90;;;;;;5005243;28;19925;-95
2023/03/28 09:58:54;;;;;;;;;;;6.70;99.90;;;;;;5023967;28;19926;-94
2023/03/28 10:01:26;;;;;;;;;;;6.70;99.90;;;;;;5025597;28;19956;-93
2023/03/28 10:03:53;;;;;;;;;;;6.70;99.90;;;;;;5022255;28;19932;-95
2023/03/28 10:06:23;;;;;;;;;;;4.60;99.90;;;;;;5029831;28;19988;-95
2023/03/28 10:08:49;;;;;;;;;;;6.80;99.90;;;;;;5025113;28;19949;-96
2023/03/28 10:11:16;;;;;;;;;;;7.20;99.90;;;;;;5027689;28;20528;-94
2023/03/28 10:13:46;;;;;;;;;;;6.20;99.90;;;;;;5040696;28;20000;-95
2023/03/28 10:16:13;;;;;;;;;;;6.80;99.90;;;;;;5023108;28;20024;-93
2023/03/28 10:18:40;;;;;;;;;;;7.00;99.90;;;;;;5025411;28;19925;-95
2023/03/28 10:21:10;;;;;;;;;;;7.50;99.90;;;;;;5014888;28;19932;-95
2023/03/28 10:23:38;;;;;;;;;;;8.00;99.90;;;;;;5026627;28;19932;-95
2023/03/28 10:26:04;;;;;;;;;;;7.70;99.90;;;;;;5031586;28;19948;-95
2023/03/28 10:28:32;;;;;;;;;;;7.00;99.90;;;;;;5028964;28;19931;-94
2023/03/28 10:31:00;;;;;;;;;;;7.10;99.90;;;;;;5024382;28;19972;-95
2023/03/28 10:33:45;;;;;;;;;;;5.00;99.90;;;;;;5010298;28;19925;-95
2023/03/28 10:36:22;;;;;;;;;;;7.40;99.90;;;;;;5024309;28;19933;-94
2023/03/28 10:38:49;;;;;;;;;;;8.40;99.90;;;;;;5034304;28;19948;-95
2023/03/28 10:41:19;;;;;;;;;;;7.20;99.90;;;;;;5019132;28;19933;-95
2023/03/28 10:43:51;;;;;;;;;;;7.60;99.90;;;;;;5036406;28;19931;-95
2023/03/28 10:46:19;;;;;;;;;;;7.70;99.90;;;;;;5005271;28;19921;-96
2023/03/28 10:48:51;;;;;;;;;;;5.70;99.90;;;;;;5031344;28;19928;-96
2023/03/28 10:51:20;;;;;;;;;;;7.90;99.90;;;;;;5025097;28;19957;-95
2023/03/28 10:54:08;;;;;;;;;;;8.10;99.90;;;;;;5032124;28;19925;-95
2023/03/28 10:56:37;;;;;;;;;;;7.90;99.90;;;;;;5018095;28;19926;-95
2023/03/28 10:59:16;;;;;;;;;;;9.80;99.90;;;;;;5023668;28;19932;-95
2023/03/28 11:01:42;;;;;;;;;;;6.70;99.90;;;;;;5023911;28;19936;-95
2023/03/28 11:04:27;;;;;;;;;;;8.20;99.90;;;;;;5031451;28;19925;-94
2023/03/28 11:07:14;;;;;;;;;;;7.90;99.90;;;;;;5010094;28;20014;-95
2023/03/28 11:10:03;;;;;;;;;;;7.70;99.90;;;;;;5013182;28;19925;-96
2023/03/28 11:12:47;;;;;;;;;;;6.60;99.90;;;;;;5021272;28;19933;-94
2023/03/28 11:15:25;;;;;;;;;;;7.60;99.90;;;;;;5016650;28;20361;-94
2023/03/28 11:18:27;;;;;;;;;;;7.70;99.90;;;;;;5019781;28;20024;-96
2023/03/28 11:21:11;;;;;;;;;;;7.70;99.90;;;;;;5026297;28;19925;-95
2023/03/28 11:23:40;;;;;;;;;;;7.60;99.90;;;;;;5012347;28;19981;-96
2023/03/28 11:26:08;;;;;;;;;;;7.70;99.90;;;;;;5032862;28;19925;-95
2023/03/28 11:28:43;;;;;;;;;;;7.80;99.90;;;;;;5027245;28;19925;-96
2023/03/28 11:31:11;;;;;;;;;;;7.90;99.90;;;;;;5017009;28;19929;-94
2023/03/28 11:33:49;;;;;;;;;;;8.20;99.90;;;;;;5025891;28;20404;-95
2023/03/28 11:36:18;;;;;;;;;;;8.30;99.90;;;;;;5024565;28;19925;-94
2023/03/28 11:38:54;;;;;;;;;;;8.30;99.90;;;;;;5032425;28;19925;-93
2023/03/28 11:41:22;;;;;;;;;;;8.70;99.90;;;;;;5017583;28;19932;-95
2023/03/28 11:44:02;;;;;;;;;;;9.40;99.90;;;;;;5029194;28;19960;-96
2023/03/28 11:46:30;;;;;;;;;;;8.90;99.90;;;;;;5028894;28;19932;-95
2023/03/28 11:49:20;;;;;;;;;;;9.10;99.90;;;;;;5032183;28;19929;-95
2023/03/28 11:51:51;;;;;;;;;;;9.90;99.90;;;;;;5023095;28;19940;-95
2023/03/28 11:54:36;;;;;;;;;;;9.10;99.90;;;;;;5022372;28;19930;-95
2023/03/28 11:57:12;;;;;;;;;;;6.80;99.90;;;;;;5030262;28;19925;-95
2023/03/28 11:59:45;;;;;;;;;;;9.00;97.60;;;;;;5024907;28;19979;-96
2023/03/28 12:02:23;;;;;;;;;;;9.00;99.90;;;;;;5028154;28;19940;-94
2023/03/28 12:04:56;;;;;;;;;;;8.80;99.90;;;;;;5038575;28;19984;-94
2023/03/28 12:07:25;;;;;;;;;;;8.80;99.90;;;;;;5027853;28;20490;-95
2023/03/28 12:10:04;;;;;;;;;;;9.40;99.10;;;;;;5012532;28;19925;-96
2023/03/28 12:12:54;;;;;;;;;;;9.60;99.90;;;;;;5022721;28;19940;-96
2023/03/28 12:15:21;;;;;;;;;;;9.50;99.80;;;;;;5026131;28;19925;-95
2023/03/28 12:17:59;;;;;;;;;;;7.90;99.90;;;;;;5025768;28;20005;-95
2023/03/28 12:20:36;;;;;;;;;;;9.50;97.80;;;;;;5032189;28;19929;-96
2023/03/28 12:23:04;;;;;;;;;;;9.80;99.90;;;;;;5020994;28;20282;-96
2023/03/28 12:25:51;;;;;;;;;;;9.90;99.90;;;;;;5019528;28;19924;-94
2023/03/28 12:28:31;;;;;;;;;;;10.00;99.90;;;;;;5027712;28;20322;-95
2023/03/28 12:31:16;;;;;;;;;;;10.00;98.60;;;;;;5037618;28;19980;-94
2023/03/28 12:34:02;;;;;;;;;;;10.00;99.90;;;;;;5028487;28;19936;-95
2023/03/28 12:36:30;;;;;;;;;;;10.00;99.80;;;;;;5043771;28;19933;-96
2023/03/28 12:39:11;;;;;;;;;;;10.90;99.90;;;;;;5029056;28;20017;-95
2023/03/28 12:41:40;;;;;;;;;;;9.80;97.20;;;;;;5026353;28;20030;-95
2023/03/28 12:44:11;;;;;;;;;;;10.10;99.90;;;;;;5040326;28;19926;-95
2023/03/28 12:46:45;;;;;;;;;;;9.70;99.30;;;;;;5024289;28;19971;-96
2023/03/28 12:52:24;;;;;;;;;;;10.10;98.70;;;;;;5041654;28;19975;-96
2023/03/28 12:54:57;;;;;;;;;;;10.00;96.90;;;;;;5029784;28;19924;-96
2023/03/28 12:57:49;;;;;;;;;;;10.00;97.70;;;;;;5017633;28;19941;-95
2023/03/28 13:00:33;;;;;;;;;;;10.20;98.10;;;;;;5032857;28;19976;-96
2023/03/28 13:03:05;;;;;;;;;;;10.10;96.50;;;;;;5050666;23;19992;-88
2023/03/28 13:05:52;;;;;;;;;;;9.80;96.70;;;;;;5032767;28;19929;-88
2023/03/28 13:08:42;;;;;;;;;;;8.40;96.60;;;;;;5034261;28;19921;-88
2023/03/28 13:11:08;;;;;;;;;;;10.20;97.40;;;;;;5037155;28;19976;-90
2023/03/28 13:13:39;;;;;;;;;;;10.10;97.80;;;;;;5025750;28;20274;-89
2023/03/28 13:16:15;;;;;;;;;;;10.00;94.60;;;;;;5031346;28;19935;-88
2023/03/28 13:18:47;;;;;;;;;;;10.10;95.10;;;;;;5042311;28;19936;-89
2023/03/28 13:21:33;;;;;;;;;;;10.10;95.20;;;;;;5043276;28;19968;-89
2023/03/28 13:23:59;;;;;;;;;;;10.00;96.40;;;;;;5033737;28;19933;-88
2023/03/28 13:26:56;;;;;;;;;;;;;;;;;;;;;
2023/03/28 13:29:42;;;;;;;;;;;10.40;92.40;;;;;;5055107;28;19940;-89
2023/03/28 13:32:12;;;;;;;;;;;10.40;93.90;;;;;;5034264;28;19920;-89
2023/03/28 13:34:40;;;;;;;;;;;10.50;96.20;;;;;;5034217;28;19964;-89
2023/03/28 13:37:28;;;;;;;;;;;10.60;96.70;;;;;;5039866;28;19920;-89
2023/03/28 13:39:58;;;;;;;;;;;10.40;94.20;;;;;;5033270;28;19921;-88
2023/03/28 13:42:33;;;;;;;;;;;10.50;96.10;;;;;;5039039;28;19920;-89
2023/03/28 13:45:04;;;;;;;;;;;10.40;94.60;;;;;;5032302;28;19927;-88
2023/03/28 13:47:33;;;;;;;;;;;10.40;95.50;;;;;;5039737;28;19920;-89
2023/03/28 13:50:15;;;;;;;;;;;10.80;95.90;;;;;;5037639;28;20269;-89
2023/03/28 13:52:43;;;;;;;;;;;10.50;97.80;;;;;;5040122;28;20314;-88
2023/03/28 13:55:22;;;;;;;;;;;9.40;97.00;;;;;;5028196;28;20071;-89
2023/03/28 13:57:51;;;;;;;;;;;10.50;94.90;;;;;;5030240;28;19920;-90
2023/03/28 14:00:19;;;;;;;;;;;10.20;94.50;;;;;;5045485;28;19924;-88
2023/03/28 14:02:50;;;;;;;;;;;10.50;96.10;;;;;;5037685;28;19920;-89
2023/03/28 14:05:22;;;;;;;;;;;11.90;96.00;;;;;;5037656;28;19921;-89
2023/03/28 14:07:49;;;;;;;;;;;9.00;95.70;;;;;;5039334;28;19974;-90
2023/03/28 14:10:44;;;;;;;;;;;10.70;96.30;;;;;;5047133;28;19920;-88
2023/03/28 14:13:18;;;;;;;;;;;10.90;94.50;;;;;;5042159;28;19920;-89
2023/03/28 14:15:46;;;;;;;;;;;10.90;93.70;;;;;;5031608;28;19958;-88
2023/03/28 14:18:30;;;;;;;;;;;10.30;94.60;;;;;;5039130;28;19920;-89
2023/03/28 14:20:59;;;;;;;;;;;10.40;94.80;;;;;;5042613;28;19968;-88
2023/03/28 14:23:27;;;;;;;;;;;10.10;94.70;;;;;;5056122;28;19921;-88
2023/03/28 14:25:56;;;;;;;;;;;10.20;95.20;;;;;;5038814;28;19920;-89
2023/03/28 14:28:26;;;;;;;;;;;9.80;96.00;;;;;;5039060;28;20263;-89
2023/03/28 14:30:52;;;;;;;;;;;9.70;96.00;;;;;;5037653;28;20007;-88
2023/03/28 14:33:19;;;;;;;;;;;9.70;97.70;;;;;;5038675;28;20007;-88
2023/03/28 14:35:54;;;;;;;;;;;9.70;95.30;;;;;;5033565;28;19943;-88
2023/03/28 14:38:28;;;;;;;;;;;9.50;95.00;;;;;;5036173;28;19921;-89
2023/03/28 14:40:54;;;;;;;;;;;8.50;95.30;;;;;;5032881;28;20292;-87
2023/03/28 14:43:30;;;;;;;;;;;9.60;95.40;;;;;;5038430;28;19946;-87
2023/03/28 14:46:01;;;;;;;;;;;9.50;94.90;;;;;;5031809;28;19921;-87
2023/03/28 14:48:27;;;;;;;;;;;9.40;94.80;;;;;;5039149;28;19950;-87